Time;durP1;ratioP1;P1;durP2;ratioP2;P2;SDS_P1;SDS_P2;PMS_P1;PMS_P2;Temp;Humidity;BMP_temperature;BMP_pressure;BME280_temperature;BME280_humidity;BME280_pressure;Samples;Min_cycle;Max_cycle;Signal;HPM_P1;HPM_P2
2023/08/08 00:00:18;;;;;;;4.50;1.90;;;;;;;12.92;86.29;98737.38;436226;1254;139740;-68
2023/08/08 00:10:23;;;;;;;5.80;1.20;;;;;;;12.80;87.66;98755.11;436381;1253;138805;-68
2023/08/08 00:20:29;;;;;;;6.50;1.80;;;;;;;12.80;88.70;98762.12;435934;1253;139595;-68
2023/08/08 00:30:35;;;;;;;3.30;2.00;;;;;;;12.70;88.71;98762.25;435725;1250;139258;-68
2023/08/08 00:40:41;;;;;;;2.60;1.80;;;;;;;12.56;87.87;98766.64;435542;1250;140394;-68
2023/08/08 00:50:49;;;;;;;5.50;1.80;;;;;;;12.42;87.42;98766.04;435699;1253;140917;-68
2023/08/08 01:00:57;;;;;;;3.90;1.20;;;;;;;12.27;87.18;98779.45;436475;1251;138852;-68
2023/08/08 01:11:04;;;;;;;2.90;1.40;;;;;;;12.11;87.02;98788.26;436972;1251;140032;-67
2023/08/08 01:21:11;;;;;;;4.20;2.10;;;;;;;11.93;87.08;98795.48;437943;1250;140358;-68
2023/08/08 01:31:17;;;;;;;3.30;1.80;;;;;;;11.81;87.32;98808.54;435864;1253;139421;-67
2023/08/08 01:41:24;;;;;;;2.70;1.30;;;;;;;11.71;87.22;98810.77;435915;1251;139159;-68
2023/08/08 01:51:30;;;;;;;3.30;1.20;;;;;;;11.60;87.13;98809.73;436054;1251;139663;-67
2023/08/08 02:01:35;;;;;;;1.90;1.20;;;;;;;11.48;87.18;98815.05;435973;1253;139295;-68
2023/08/08 02:11:41;;;;;;;7.70;1.50;;;;;;;11.37;87.48;98813.11;436187;1251;139203;-68
2023/08/08 02:21:47;;;;;;;2.00;1.20;;;;;;;11.32;87.42;98823.70;435888;1251;140084;-68
2023/08/08 02:31:52;;;;;;;3.70;1.60;;;;;;;11.25;87.42;98833.37;435782;1251;139733;-68
2023/08/08 02:41:58;;;;;;;2.40;1.20;;;;;;;11.19;87.29;98841.33;436552;1253;139150;-67
2023/08/08 02:52:05;;;;;;;3.20;1.60;;;;;;;11.20;87.16;98851.05;435961;1252;139236;-66
2023/08/08 03:02:11;;;;;;;3.00;1.30;;;;;;;11.35;86.60;98858.67;436093;1251;140510;-67
2023/08/08 03:12:18;;;;;;;3.90;1.70;;;;;;;11.60;85.77;98870.01;435994;1251;139973;-68
2023/08/08 03:22:23;;;;;;;2.50;1.40;;;;;;;11.79;84.83;98883.07;436053;1251;140112;-67
2023/08/08 03:32:30;;;;;;;4.20;1.80;;;;;;;11.97;84.10;98887.48;436173;1251;140446;-68
2023/08/08 03:42:36;;;;;;;4.00;1.50;;;;;;;12.16;83.46;98889.61;436537;1253;138903;-67
2023/08/08 03:52:42;;;;;;;3.30;1.20;;;;;;;12.37;82.66;98905.65;435558;1251;140601;-69
2023/08/08 04:02:48;;;;;;;9.50;1.70;;;;;;;12.62;81.62;98910.95;435114;1256;139451;-68
2023/08/08 04:12:53;;;;;;;2.20;1.30;;;;;;;13.04;80.51;98913.77;435511;1251;139305;-68
2023/08/08 04:22:59;;;;;;;2.60;1.40;;;;;;;13.52;78.74;98927.33;435706;1251;139323;-68
2023/08/08 04:33:05;;;;;;;3.00;1.10;;;;;;;13.63;77.56;98942.14;435548;1253;139178;-68
2023/08/08 04:43:11;;;;;;;5.30;2.20;;;;;;;13.97;76.36;98959.98;435913;1253;139289;-68
2023/08/08 04:53:17;;;;;;;2.00;1.50;;;;;;;14.48;75.13;98971.65;435765;1251;139342;-68
2023/08/08 05:03:22;;;;;;;2.90;1.50;;;;;;;15.19;73.14;98986.95;435522;1250;140018;-68
2023/08/08 05:13:28;;;;;;;5.70;1.20;;;;;;;16.41;72.66;98997.45;435912;1253;138962;-68
2023/08/08 05:23:34;;;;;;;3.00;1.10;;;;;;;23.54;64.60;99006.45;435541;1251;139857;-68
2023/08/08 05:33:39;;;;;;;2.10;1.10;;;;;;;27.67;53.85;99003.65;435869;1253;139055;-69
2023/08/08 05:43:45;;;;;;;2.70;1.30;;;;;;;25.89;50.90;99006.44;435415;1253;138936;-65
2023/08/08 05:53:51;;;;;;;2.70;1.40;;;;;;;27.08;48.40;99020.94;435505;1253;138078;-65
2023/08/08 06:03:58;;;;;;;3.30;1.20;;;;;;;28.46;44.57;99027.05;435667;1255;139299;-65
2023/08/08 06:14:03;;;;;;;2.30;1.50;;;;;;;28.57;42.52;99029.33;438937;1255;139159;-65
2023/08/08 06:24:09;;;;;;;2.90;0.90;;;;;;;25.00;42.95;99038.34;435791;1255;138603;-64
2023/08/08 06:34:15;;;;;;;1.80;1.10;;;;;;;-128.00;-1.00;-1.00;432132;1250;1059623;-65
2023/08/08 06:44:23;;;;;;;2.80;1.10;;;;;;;-128.00;-1.00;-1.00;432395;1253;1043863;-65
2023/08/08 06:54:29;;;;;;;1.60;1.10;;;;;;;-128.00;-1.00;-1.00;433766;1251;1046498;-75
2023/08/08 07:04:34;;;;;;;4.00;1.10;;;;;;;-128.00;-1.00;-1.00;434878;1253;1062313;-68
